sensor_id;sensor_type;location;lat;lon;timestamp;pressure;altitude;pressure_sealevel;temperature;humidity
74552;BME280;63025;55.472;38.432;2023-08-12T00:01:18;100437.22;;;22.23;100.00
74552;BME280;63025;55.472;38.432;2023-08-12T00:03:47;100424.94;;;22.21;100.00
74552;BME280;63025;55.472;38.432;2023-08-12T00:06:13;100434.75;;;22.22;100.00
74552;BME280;63025;55.472;38.432;2023-08-12T00:08:39;100422.75;;;22.18;100.00
74552;BME280;63025;55.472;38.432;2023-08-12T00:11:05;100430.41;;;22.21;100.00
74552;BME280;63025;55.472;38.432;2023-08-12T00:13:31;100419.47;;;22.16;100.00
74552;BME280;63025;55.472;38.432;2023-08-12T00:15:57;100409.34;;;22.11;100.00
74552;BME280;63025;55.472;38.432;2023-08-12T00:18:22;100421.41;;;22.10;100.00
74552;BME280;63025;55.472;38.432;2023-08-12T00:20:48;100423.84;;;22.12;100.00
74552;BME280;63025;55.472;38.432;2023-08-12T00:23:14;100426.88;;;22.10;100.00
74552;BME280;63025;55.472;38.432;2023-08-12T00:25:40;100429.88;;;22.09;100.00
74552;BME280;63025;55.472;38.432;2023-08-12T00:28:06;100425.50;;;22.08;100.00
74552;BME280;63025;55.472;38.432;2023-08-12T00:30:32;100423.84;;;22.07;100.00
74552;BME280;63025;55.472;38.432;2023-08-12T00:32:57;100425.50;;;22.03;100.00
74552;BME280;63025;55.472;38.432;2023-08-12T00:35:23;100419.78;;;21.99;100.00
74552;BME280;63025;55.472;38.432;2023-08-12T00:37:49;100430.44;;;22.01;100.00
74552;BME280;63025;55.472;38.432;2023-08-12T00:40:15;100432.06;;;21.96;100.00
74552;BME280;63025;55.472;38.432;2023-08-12T00:42:41;100434.78;;;21.96;100.00
74552;BME280;63025;55.472;38.432;2023-08-12T00:45:10;100439.44;;;21.96;100.00
74552;BME280;63025;55.472;38.432;2023-08-12T00:47:38;100473.91;;;21.92;100.00
74552;BME280;63025;55.472;38.432;2023-08-12T00:50:06;100487.91;;;21.90;100.00
74552;BME280;63025;55.472;38.432;2023-08-12T00:52:34;100469.56;;;21.86;100.00
74552;BME280;63025;55.472;38.432;2023-08-12T00:55:00;100523.44;;;21.75;100.00
74552;BME280;63025;55.472;38.432;2023-08-12T00:57:26;100494.97;;;21.71;100.00
74552;BME280;63025;55.472;38.432;2023-08-12T00:59:52;100502.94;;;21.68;100.00
74552;BME280;63025;55.472;38.432;2023-08-12T01:02:21;100477.72;;;21.60;100.00
74552;BME280;63025;55.472;38.432;2023-08-12T01:04:47;100495.53;;;21.58;100.00
74552;BME280;63025;55.472;38.432;2023-08-12T01:07:13;100520.66;;;21.50;100.00
74552;BME280;63025;55.472;38.432;2023-08-12T01:09:39;100464.88;;;21.46;100.00
74552;BME280;63025;55.472;38.432;2023-08-12T01:12:41;100476.06;;;21.49;100.00
74552;BME280;63025;55.472;38.432;2023-08-12T01:15:12;100491.38;;;21.45;100.00
74552;BME280;63025;55.472;38.432;2023-08-12T01:17:41;100476.34;;;21.43;100.00
74552;BME280;63025;55.472;38.432;2023-08-12T01:20:08;100491.38;;;21.40;100.00
74552;BME280;63025;55.472;38.432;2023-08-12T01:22:38;100475.50;;;21.32;100.00
74552;BME280;63025;55.472;38.432;2023-08-12T01:25:07;100486.16;;;21.34;100.00
74552;BME280;63025;55.472;38.432;2023-08-12T01:27:34;100482.88;;;21.27;100.00
74552;BME280;63025;55.472;38.432;2023-08-12T01:30:01;100487.53;;;21.26;100.00
74552;BME280;63025;55.472;38.432;2023-08-12T01:35:18;100495.66;;;21.16;100.00
74552;BME280;63025;55.472;38.432;2023-08-12T01:37:46;100487.44;;;21.11;100.00
74552;BME280;63025;55.472;38.432;2023-08-12T01:40:14;100479.22;;;21.11;100.00
74552;BME280;63025;55.472;38.432;2023-08-12T01:42:42;100486.03;;;21.08;100.00
74552;BME280;63025;55.472;38.432;2023-08-12T01:45:08;100490.41;;;21.04;100.00
74552;BME280;63025;55.472;38.432;2023-08-12T01:47:34;100490.94;;;21.01;100.00
74552;BME280;63025;55.472;38.432;2023-08-12T01:50:00;100491.47;;;20.93;100.00
74552;BME280;63025;55.472;38.432;2023-08-12T01:52:26;100489.25;;;20.90;100.00
74552;BME280;63025;55.472;38.432;2023-08-12T01:54:54;100479.97;;;20.91;100.00
74552;BME280;63025;55.472;38.432;2023-08-12T01:57:21;100482.13;;;20.89;100.00
74552;BME280;63025;55.472;38.432;2023-08-12T01:59:47;100497.97;;;20.82;100.00
74552;BME280;63025;55.472;38.432;2023-08-12T02:02:13;100498.50;;;20.79;100.00
74552;BME280;63025;55.472;38.432;2023-08-12T02:04:40;100492.50;;;20.82;100.00
74552;BME280;63025;55.472;38.432;2023-08-12T02:07:07;100496.31;;;20.81;100.00
74552;BME280;63025;55.472;38.432;2023-08-12T02:09:33;100490.84;;;20.81;100.00
74552;BME280;63025;55.472;38.432;2023-08-12T02:11:59;100488.38;;;20.79;100.00
74552;BME280;63025;55.472;38.432;2023-08-12T02:14:25;100486.22;;;20.81;100.00
74552;BME280;63025;55.472;38.432;2023-08-12T02:16:52;100481.31;;;20.83;100.00
74552;BME280;63025;55.472;38.432;2023-08-12T02:19:20;100460.28;;;20.84;100.00
74552;BME280;63025;55.472;38.432;2023-08-12T02:21:46;100466.31;;;20.86;100.00
74552;BME280;63025;55.472;38.432;2023-08-12T02:24:12;100474.50;;;20.91;100.00
74552;BME280;63025;55.472;38.432;2023-08-12T02:26:38;100460.28;;;20.89;100.00
74552;BME280;63025;55.472;38.432;2023-08-12T02:29:05;100457.84;;;20.98;100.00
74552;BME280;63025;55.472;38.432;2023-08-12T02:31:31;100456.50;;;21.00;100.00
74552;BME280;63025;55.472;38.432;2023-08-12T02:33:57;100435.72;;;20.99;100.00
74552;BME280;63025;55.472;38.432;2023-08-12T02:36:24;100432.16;;;20.99;100.00
74552;BME280;63025;55.472;38.432;2023-08-12T02:38:55;100432.16;;;20.99;100.00
74552;BME280;63025;55.472;38.432;2023-08-12T02:41:21;100420.69;;;21.02;100.00
74552;BME280;63025;55.472;38.432;2023-08-12T02:43:47;100402.66;;;21.01;100.00
74552;BME280;63025;55.472;38.432;2023-08-12T02:46:13;100398.03;;;21.01;100.00
74552;BME280;63025;55.472;38.432;2023-08-12T02:48:42;100395.28;;;21.01;100.00
74552;BME280;63025;55.472;38.432;2023-08-12T02:51:08;100390.91;;;20.95;100.00
74552;BME280;63025;55.472;38.432;2023-08-12T02:53:36;100401.84;;;20.95;100.00
74552;BME280;63025;55.472;38.432;2023-08-12T02:56:01;100399.94;;;20.96;100.00
74552;BME280;63025;55.472;38.432;2023-08-12T02:58:28;100398.53;;;20.98;100.00
74552;BME280;63025;55.472;38.432;2023-08-12T03:00:55;100416.03;;;20.92;100.00
74552;BME280;63025;55.472;38.432;2023-08-12T03:03:21;100422.31;;;20.93;100.00
74552;BME280;63025;55.472;38.432;2023-08-12T03:05:48;100420.97;;;20.95;100.00
74552;BME280;63025;55.472;38.432;2023-08-12T03:08:14;100436.00;;;20.98;100.00
74552;BME280;63025;55.472;38.432;2023-08-12T03:10:41;100421.53;;;21.02;100.00
74552;BME280;63025;55.472;38.432;2023-08-12T03:13:08;100421.25;;;21.04;100.00
74552;BME280;63025;55.472;38.432;2023-08-12T03:15:34;100405.13;;;21.02;100.00
74552;BME280;63025;55.472;38.432;2023-08-12T03:17:59;100418.81;;;21.07;100.00
74552;BME280;63025;55.472;38.432;2023-08-12T03:20:26;100416.63;;;21.09;100.00
74552;BME280;63025;55.472;38.432;2023-08-12T03:22:52;100424.03;;;21.14;100.00
74552;BME280;63025;55.472;38.432;2023-08-12T03:25:18;100431.13;;;21.15;100.00
74552;BME280;63025;55.472;38.432;2023-08-12T03:27:45;100427.91;;;21.23;100.00
74552;BME280;63025;55.472;38.432;2023-08-12T03:30:11;100418.91;;;21.28;100.00
74552;BME280;63025;55.472;38.432;2023-08-12T03:32:38;100408.22;;;21.31;100.00
74552;BME280;63025;55.472;38.432;2023-08-12T03:35:04;100395.09;;;21.33;100.00
74552;BME280;63025;55.472;38.432;2023-08-12T03:37:32;100405.50;;;21.41;100.00
74552;BME280;63025;55.472;38.432;2023-08-12T03:39:58;100410.16;;;21.46;100.00
74552;BME280;63025;55.472;38.432;2023-08-12T03:42:24;100413.16;;;21.44;100.00
74552;BME280;63025;55.472;38.432;2023-08-12T03:44:50;100408.25;;;21.46;100.00
74552;BME280;63025;55.472;38.432;2023-08-12T03:47:17;100407.44;;;21.46;100.00
74552;BME280;63025;55.472;38.432;2023-08-12T03:49:48;100414.00;;;21.45;100.00
74552;BME280;63025;55.472;38.432;2023-08-12T03:52:14;100405.22;;;21.43;100.00
74552;BME280;63025;55.472;38.432;2023-08-12T03:54:41;100403.59;;;21.42;100.00
74552;BME280;63025;55.472;38.432;2023-08-12T03:57:07;100403.59;;;21.42;100.00
74552;BME280;63025;55.472;38.432;2023-08-12T03:59:34;100413.97;;;21.40;100.00
74552;BME280;63025;55.472;38.432;2023-08-12T04:01:59;100428.22;;;21.37;100.00
74552;BME280;63025;55.472;38.432;2023-08-12T04:04:27;100423.25;;;21.39;100.00
74552;BME280;63025;55.472;38.432;2023-08-12T04:06:53;100433.41;;;21.38;100.00
74552;BME280;63025;55.472;38.432;2023-08-12T04:09:19;100428.75;;;21.44;100.00
74552;BME280;63025;55.472;38.432;2023-08-12T04:11:46;100429.88;;;21.48;100.00
74552;BME280;63025;55.472;38.432;2023-08-12T04:14:13;100432.84;;;21.51;100.00
74552;BME280;63025;55.472;38.432;2023-08-12T04:16:43;100430.41;;;21.55;100.00
74552;BME280;63025;55.472;38.432;2023-08-12T04:19:08;100429.88;;;21.58;100.00
74552;BME280;63025;55.472;38.432;2023-08-12T04:21:35;100426.31;;;21.63;100.00
74552;BME280;63025;55.472;38.432;2023-08-12T04:24:02;100421.13;;;21.66;100.00
74552;BME280;63025;55.472;38.432;2023-08-12T04:26:29;100428.78;;;21.69;100.00
74552;BME280;63025;55.472;38.432;2023-08-12T04:28:55;100426.88;;;21.70;100.00
74552;BME280;63025;55.472;38.432;2023-08-12T04:31:22;100426.06;;;21.69;100.00
74552;BME280;63025;55.472;38.432;2023-08-12T04:33:48;100434.25;;;21.69;100.00
74552;BME280;63025;55.472;38.432;2023-08-12T04:36:16;100444.38;;;21.69;100.00
74552;BME280;63025;55.472;38.432;2023-08-12T04:38:42;100438.34;;;21.67;100.00
74552;BME280;63025;55.472;38.432;2023-08-12T04:41:09;100436.41;;;21.62;100.00
74552;BME280;63025;55.472;38.432;2023-08-12T04:43:36;100429.03;;;21.63;100.00
74552;BME280;63025;55.472;38.432;2023-08-12T04:46:03;100429.06;;;21.57;100.00
74552;BME280;63025;55.472;38.432;2023-08-12T04:48:30;100429.88;;;21.58;100.00
74552;BME280;63025;55.472;38.432;2023-08-12T04:50:57;100436.16;;;21.58;100.00
74552;BME280;63025;55.472;38.432;2023-08-12T04:53:28;100437.78;;;21.59;100.00
74552;BME280;63025;55.472;38.432;2023-08-12T04:55:55;100414.56;;;21.57;100.00
74552;BME280;63025;55.472;38.432;2023-08-12T04:58:23;100399.22;;;21.56;100.00
74552;BME280;63025;55.472;38.432;2023-08-12T05:00:50;100395.94;;;21.54;100.00
74552;BME280;63025;55.472;38.432;2023-08-12T05:03:21;100413.47;;;21.58;100.00
74552;BME280;63025;55.472;38.432;2023-08-12T05:05:51;100415.34;;;21.63;100.00
74552;BME280;63025;55.472;38.432;2023-08-12T05:08:19;100423.31;;;21.59;100.00
74552;BME280;63025;55.472;38.432;2023-08-12T05:10:49;100404.94;;;21.59;100.00
74552;BME280;63025;55.472;38.432;2023-08-12T05:13:16;100405.25;;;21.58;100.00
74552;BME280;63025;55.472;38.432;2023-08-12T05:15:45;100397.88;;;21.58;100.00
74552;BME280;63025;55.472;38.432;2023-08-12T05:18:12;100375.16;;;21.58;100.00
74552;BME280;63025;55.472;38.432;2023-08-12T05:20:39;100363.66;;;21.56;100.00
74552;BME280;63025;55.472;38.432;2023-08-12T05:23:06;100363.94;;;21.54;100.00
74552;BME280;63025;55.472;38.432;2023-08-12T05:25:31;100345.06;;;21.53;100.00
74552;BME280;63025;55.472;38.432;2023-08-12T05:27:57;100337.94;;;21.52;100.00
74552;BME280;63025;55.472;38.432;2023-08-12T05:30:23;100339.84;;;21.51;100.00
74552;BME280;63025;55.472;38.432;2023-08-12T05:32:49;100326.44;;;21.50;100.00
74552;BME280;63025;55.472;38.432;2023-08-12T05:35:14;100338.22;;;21.50;100.00
74552;BME280;63025;55.472;38.432;2023-08-12T05:37:40;100335.22;;;21.52;100.00
74552;BME280;63025;55.472;38.432;2023-08-12T05:40:08;100338.22;;;21.60;100.00
74552;BME280;63025;55.472;38.432;2023-08-12T05:42:34;100327.00;;;21.67;100.00
74552;BME280;63025;55.472;38.432;2023-08-12T05:45:00;100313.31;;;21.72;100.00
74552;BME280;63025;55.472;38.432;2023-08-12T05:47:26;100318.75;;;21.82;100.00
74552;BME280;63025;55.472;38.432;2023-08-12T05:49:52;100304.53;;;21.90;100.00
74552;BME280;63025;55.472;38.432;2023-08-12T05:52:17;100300.97;;;22.00;100.00
74552;BME280;63025;55.472;38.432;2023-08-12T05:54:43;100305.59;;;22.05;100.00
74552;BME280;63025;55.472;38.432;2023-08-12T05:57:09;100286.16;;;22.11;100.00
74552;BME280;63025;55.472;38.432;2023-08-12T05:59:35;100281.72;;;22.20;100.00
74552;BME280;63025;55.472;38.432;2023-08-12T06:02:01;100281.97;;;22.29;100.00
74552;BME280;63025;55.472;38.432;2023-08-12T06:04:27;100277.53;;;22.38;100.00
74552;BME280;63025;55.472;38.432;2023-08-12T06:06:53;100277.47;;;22.48;100.00
74552;BME280;63025;55.472;38.432;2023-08-12T06:09:19;100283.19;;;22.57;100.00
74552;BME280;63025;55.472;38.432;2023-08-12T06:11:44;100270.22;;;22.67;100.00
74552;BME280;63025;55.472;38.432;2023-08-12T06:14:10;100281.16;;;22.78;100.00
74552;BME280;63025;55.472;38.432;2023-08-12T06:16:36;100292.88;;;22.88;100.00
74552;BME280;63025;55.472;38.432;2023-08-12T06:19:02;100297.44;;;23.03;100.00
74552;BME280;63025;55.472;38.432;2023-08-12T06:21:28;100295.72;;;23.12;100.00
74552;BME280;63025;55.472;38.432;2023-08-12T06:23:53;100302.16;;;23.26;100.00
74552;BME280;63025;55.472;38.432;2023-08-12T06:26:19;100300.69;;;23.39;100.00
74552;BME280;63025;55.472;38.432;2023-08-12T06:28:45;100311.34;;;23.46;100.00
74552;BME280;63025;55.472;38.432;2023-08-12T06:31:11;100304.16;;;23.55;100.00
74552;BME280;63025;55.472;38.432;2023-08-12T06:33:36;100310.38;;;23.65;100.00
74552;BME280;63025;55.472;38.432;2023-08-12T06:36:02;100318.78;;;23.74;100.00
74552;BME280;63025;55.472;38.432;2023-08-12T06:38:28;100310.22;;;23.81;100.00
74552;BME280;63025;55.472;38.432;2023-08-12T06:40:54;100312.28;;;23.94;100.00
74552;BME280;63025;55.472;38.432;2023-08-12T06:43:21;100308.47;;;24.13;100.00
74552;BME280;63025;55.472;38.432;2023-08-12T06:45:46;100303.06;;;24.32;100.00
74552;BME280;63025;55.472;38.432;2023-08-12T06:48:12;100301.38;;;24.55;100.00
74552;BME280;63025;55.472;38.432;2023-08-12T06:50:38;100297.47;;;24.80;100.00
74552;BME280;63025;55.472;38.432;2023-08-12T06:53:04;100289.81;;;24.96;100.00
74552;BME280;63025;55.472;38.432;2023-08-12T06:55:30;100294.28;;;25.10;100.00
74552;BME280;63025;55.472;38.432;2023-08-12T06:57:56;100295.56;;;25.32;100.00
74552;BME280;63025;55.472;38.432;2023-08-12T07:00:21;100299.03;;;25.37;100.00
74552;BME280;63025;55.472;38.432;2023-08-12T07:02:47;100296.06;;;25.34;100.00
74552;BME280;63025;55.472;38.432;2023-08-12T07:05:13;100301.38;;;25.30;100.00
74552;BME280;63025;55.472;38.432;2023-08-12T07:07:39;100293.81;;;25.22;100.00
74552;BME280;63025;55.472;38.432;2023-08-12T07:10:05;100304.59;;;25.18;100.00
74552;BME280;63025;55.472;38.432;2023-08-12T07:12:32;100299.69;;;25.15;100.00
74552;BME280;63025;55.472;38.432;2023-08-12T07:14:58;100296.94;;;25.15;100.00
74552;BME280;63025;55.472;38.432;2023-08-12T07:17:24;100292.84;;;25.13;100.00
74552;BME280;63025;55.472;38.432;2023-08-12T07:19:50;100290.88;;;25.00;100.00
74552;BME280;63025;55.472;38.432;2023-08-12T07:22:16;100297.66;;;24.83;100.00
74552;BME280;63025;55.472;38.432;2023-08-12T07:24:45;100289.88;;;24.72;100.00
74552;BME280;63025;55.472;38.432;2023-08-12T07:27:11;100290.81;;;24.62;100.00
74552;BME280;63025;55.472;38.432;2023-08-12T07:29:36;100289.34;;;24.51;100.00
74552;BME280;63025;55.472;38.432;2023-08-12T07:32:02;100304.44;;;24.30;100.00
74552;BME280;63025;55.472;38.432;2023-08-12T07:34:28;100305.97;;;24.17;100.00
74552;BME280;63025;55.472;38.432;2023-08-12T07:36:54;100303.28;;;24.12;100.00
74552;BME280;63025;55.472;38.432;2023-08-12T07:39:20;100302.00;;;24.04;100.00
74552;BME280;63025;55.472;38.432;2023-08-12T07:41:46;100312.16;;;24.04;100.00
74552;BME280;63025;55.472;38.432;2023-08-12T07:44:13;100313.63;;;23.96;100.00
74552;BME280;63025;55.472;38.432;2023-08-12T07:46:38;100310.09;;;23.91;100.00
74552;BME280;63025;55.472;38.432;2023-08-12T07:49:04;100310.09;;;23.91;100.00
74552;BME280;63025;55.472;38.432;2023-08-12T07:51:30;100306.66;;;23.80;100.00
74552;BME280;63025;55.472;38.432;2023-08-12T07:53:56;100309.47;;;23.75;100.00
74552;BME280;63025;55.472;38.432;2023-08-12T07:56:21;100313.88;;;23.71;100.00
74552;BME280;63025;55.472;38.432;2023-08-12T07:58:47;100318.63;;;23.65;100.00
74552;BME280;63025;55.472;38.432;2023-08-12T08:01:13;100320.28;;;23.61;100.00
74552;BME280;63025;55.472;38.432;2023-08-12T08:03:39;100324.19;;;23.55;100.00
74552;BME280;63025;55.472;38.432;2023-08-12T08:06:05;100320.69;;;23.45;100.00
74552;BME280;63025;55.472;38.432;2023-08-12T08:08:30;100326.75;;;23.41;100.00
74552;BME280;63025;55.472;38.432;2023-08-12T08:10:56;100333.13;;;23.32;100.00
74552;BME280;63025;55.472;38.432;2023-08-12T08:13:22;100327.41;;;23.28;100.00
74552;BME280;63025;55.472;38.432;2023-08-12T08:15:48;100327.16;;;23.25;100.00
74552;BME280;63025;55.472;38.432;2023-08-12T08:18:14;100326.66;;;23.18;100.00
74552;BME280;63025;55.472;38.432;2023-08-12T08:20:42;100325.56;;;23.19;100.00
74552;BME280;63025;55.472;38.432;2023-08-12T08:23:08;100332.19;;;23.13;100.00
74552;BME280;63025;55.472;38.432;2023-08-12T08:25:34;100335.97;;;23.17;100.00
74552;BME280;63025;55.472;38.432;2023-08-12T08:27:59;100339.25;;;23.19;100.00
74552;BME280;63025;55.472;38.432;2023-08-12T08:30:25;100331.28;;;23.22;100.00
74552;BME280;63025;55.472;38.432;2023-08-12T08:32:51;100330.81;;;23.15;100.00
74552;BME280;63025;55.472;38.432;2023-08-12T08:35:17;100351.63;;;23.16;100.00
74552;BME280;63025;55.472;38.432;2023-08-12T08:37:43;100353.03;;;23.14;100.00
74552;BME280;63025;55.472;38.432;2023-08-12T08:40:09;100353.03;;;23.14;100.00
74552;BME280;63025;55.472;38.432;2023-08-12T08:42:36;100359.34;;;23.09;100.00
74552;BME280;63025;55.472;38.432;2023-08-12T08:45:06;100352.50;;;23.06;100.00
74552;BME280;63025;55.472;38.432;2023-08-12T08:47:35;100365.94;;;23.08;100.00
74552;BME280;63025;55.472;38.432;2023-08-12T08:50:01;100347.78;;;23.17;100.00
74552;BME280;63025;55.472;38.432;2023-08-12T08:52:29;100332.97;;;23.18;100.00
74552;BME280;63025;55.472;38.432;2023-08-12T08:54:55;100334.03;;;23.22;100.00
74552;BME280;63025;55.472;38.432;2023-08-12T08:57:21;100347.69;;;23.27;100.00
74552;BME280;63025;55.472;38.432;2023-08-12T08:59:47;100361.38;;;23.32;100.00
74552;BME280;63025;55.472;38.432;2023-08-12T09:02:17;100379.56;;;23.23;100.00
74552;BME280;63025;55.472;38.432;2023-08-12T09:04:46;100367.50;;;23.19;100.00
74552;BME280;63025;55.472;38.432;2023-08-12T09:07:13;100356.59;;;23.14;100.00
74552;BME280;63025;55.472;38.432;2023-08-12T09:09:45;100363.19;;;23.08;100.00
74552;BME280;63025;55.472;38.432;2023-08-12T09:12:16;100362.09;;;23.09;100.00
74552;BME280;63025;55.472;38.432;2023-08-12T09:14:43;100337.41;;;23.14;100.00
74552;BME280;63025;55.472;38.432;2023-08-12T09:17:10;100329.38;;;23.23;100.00
74552;BME280;63025;55.472;38.432;2023-08-12T09:19:36;100340.00;;;23.29;100.00
74552;BME280;63025;55.472;38.432;2023-08-12T09:22:04;100337.56;;;23.28;100.00
74552;BME280;63025;55.472;38.432;2023-08-12T09:24:30;100316.19;;;23.25;100.00
74552;BME280;63025;55.472;38.432;2023-08-12T09:26:56;100301.13;;;23.22;100.00
74552;BME280;63025;55.472;38.432;2023-08-12T09:29:23;100294.03;;;23.16;100.00
74552;BME280;63025;55.472;38.432;2023-08-12T09:31:50;100302.56;;;23.15;100.00
74552;BME280;63025;55.472;38.432;2023-08-12T09:34:17;100308.91;;;23.10;100.00
74552;BME280;63025;55.472;38.432;2023-08-12T09:36:43;100301.78;;;23.09;100.00
74552;BME280;63025;55.472;38.432;2023-08-12T09:39:09;100299.03;;;23.09;100.00
74552;BME280;63025;55.472;38.432;2023-08-12T09:41:37;100290.81;;;23.09;100.00
74552;BME280;63025;55.472;38.432;2023-08-12T09:44:03;100283.41;;;23.10;100.00
74552;BME280;63025;55.472;38.432;2023-08-12T09:46:29;100277.91;;;23.10;100.00
74552;BME280;63025;55.472;38.432;2023-08-12T09:48:58;100276.53;;;23.12;100.00
74552;BME280;63025;55.472;38.432;2023-08-12T09:51:25;100285.31;;;23.09;100.00
74552;BME280;63025;55.472;38.432;2023-08-12T09:53:52;100281.50;;;23.05;100.00
74552;BME280;63025;55.472;38.432;2023-08-12T09:56:19;100274.97;;;23.01;100.00
74552;BME280;63025;55.472;38.432;2023-08-12T09:58:49;100268.94;;;22.99;100.00
74552;BME280;63025;55.472;38.432;2023-08-12T10:01:19;100269.28;;;22.92;100.00
74552;BME280;63025;55.472;38.432;2023-08-12T10:03:50;100266.00;;;22.90;100.00
74552;BME280;63025;55.472;38.432;2023-08-12T10:06:17;100264.63;;;22.88;100.00
74552;BME280;63025;55.472;38.432;2023-08-12T10:08:46;100280.88;;;22.79;100.00
74552;BME280;63025;55.472;38.432;2023-08-12T10:11:12;100315.72;;;22.74;100.00
74552;BME280;63025;55.472;38.432;2023-08-12T10:13:38;100329.69;;;22.72;100.00
74552;BME280;63025;55.472;38.432;2023-08-12T10:16:05;100378.19;;;22.66;100.00
74552;BME280;63025;55.472;38.432;2023-08-12T10:18:32;100375.47;;;22.66;100.00
74552;BME280;63025;55.472;38.432;2023-08-12T10:20:59;100383.94;;;22.75;100.00
74552;BME280;63025;55.472;38.432;2023-08-12T10:23:25;100377.59;;;22.75;100.00
74552;BME280;63025;55.472;38.432;2023-08-12T10:25:54;100375.72;;;22.75;100.00
74552;BME280;63025;55.472;38.432;2023-08-12T10:28:21;100358.41;;;22.85;100.00
74552;BME280;63025;55.472;38.432;2023-08-12T10:30:47;100361.13;;;22.90;100.00
74552;BME280;63025;55.472;38.432;2023-08-12T10:33:14;100364.94;;;22.94;100.00
74552;BME280;63025;55.472;38.432;2023-08-12T10:35:44;100365.22;;;22.92;100.00
74552;BME280;63025;55.472;38.432;2023-08-12T10:38:13;100349.06;;;22.86;100.00
74552;BME280;63025;55.472;38.432;2023-08-12T10:40:39;100340.84;;;22.86;100.00
74552;BME280;63025;55.472;38.432;2023-08-12T10:43:05;100350.19;;;22.85;100.00
74552;BME280;63025;55.472;38.432;2023-08-12T10:48:24;100329.34;;;22.89;100.00
74552;BME280;63025;55.472;38.432;2023-08-12T10:50:55;100342.56;;;22.77;100.00
74552;BME280;63025;55.472;38.432;2023-08-12T10:53:29;100327.50;;;22.69;100.00
74552;BME280;63025;55.472;38.432;2023-08-12T10:56:01;100351.41;;;22.58;100.00
74552;BME280;63025;55.472;38.432;2023-08-12T10:58:41;100348.09;;;22.56;100.00
74552;BME280;63025;55.472;38.432;2023-08-12T11:01:16;100345.91;;;22.58;100.00
74552;BME280;63025;55.472;38.432;2023-08-12T11:03:43;100344.78;;;22.64;100.00
74552;BME280;63025;55.472;38.432;2023-08-12T11:06:12;100337.34;;;22.75;100.00
74552;BME280;63025;55.472;38.432;2023-08-12T11:08:51;100326.59;;;22.89;100.00
74552;BME280;63025;55.472;38.432;2023-08-12T11:11:24;100327.41;;;22.94;100.00
74552;BME280;63025;55.472;38.432;2023-08-12T11:13:54;100331.47;;;22.97;100.00
74552;BME280;63025;55.472;38.432;2023-08-12T11:16:31;100326.53;;;22.99;100.00
74552;BME280;63025;55.472;38.432;2023-08-12T11:18:59;100318.34;;;22.94;100.00
74552;BME280;63025;55.472;38.432;2023-08-12T11:21:26;100324.59;;;22.99;100.00
74552;BME280;63025;55.472;38.432;2023-08-12T11:23:54;100338.03;;;23.01;100.00
74552;BME280;63025;55.472;38.432;2023-08-12T11:26:24;100358.31;;;23.00;100.00
74552;BME280;63025;55.472;38.432;2023-08-12T11:28:50;100358.09;;;22.91;100.00
74552;BME280;63025;55.472;38.432;2023-08-12T11:31:16;100351.75;;;22.96;100.00
74552;BME280;63025;55.472;38.432;2023-08-12T11:33:43;100351.75;;;22.96;100.00
74552;BME280;63025;55.472;38.432;2023-08-12T11:36:09;100364.38;;;22.97;100.00
74552;BME280;63025;55.472;38.432;2023-08-12T11:38:35;100363.53;;;22.96;100.00
74552;BME280;63025;55.472;38.432;2023-08-12T11:41:01;100351.19;;;22.99;100.00
74552;BME280;63025;55.472;38.432;2023-08-12T11:43:33;100339.16;;;22.95;100.00
74552;BME280;63025;55.472;38.432;2023-08-12T11:45:59;100345.78;;;22.89;100.00
74552;BME280;63025;55.472;38.432;2023-08-12T11:48:28;100341.44;;;22.83;100.00
74552;BME280;63025;55.472;38.432;2023-08-12T11:50:54;100341.47;;;22.78;100.00
74552;BME280;63025;55.472;38.432;2023-08-12T11:53:21;100346.97;;;22.67;100.00
74552;BME280;63025;55.472;38.432;2023-08-12T11:55:47;100347.00;;;22.57;100.00
74552;BME280;63025;55.472;38.432;2023-08-12T11:58:14;100352.78;;;22.56;100.00
74552;BME280;63025;55.472;38.432;2023-08-12T12:00:47;100380.78;;;22.38;100.00
74552;BME280;63025;55.472;38.432;2023-08-12T12:03:13;100399.72;;;22.24;100.00
74552;BME280;63025;55.472;38.432;2023-08-12T12:05:41;100417.81;;;22.15;100.00
74552;BME280;63025;55.472;38.432;2023-08-12T12:08:07;100418.13;;;21.98;100.00
74552;BME280;63025;55.472;38.432;2023-08-12T12:10:35;100421.41;;;21.90;100.00
74552;BME280;63025;55.472;38.432;2023-08-12T12:13:03;100433.41;;;21.84;100.00
74552;BME280;63025;55.472;38.432;2023-08-12T12:15:30;100453.13;;;21.71;100.00
74552;BME280;63025;55.472;38.432;2023-08-12T12:17:56;100442.16;;;21.60;100.00
74552;BME280;63025;55.472;38.432;2023-08-12T12:20:22;100424.41;;;21.58;100.00
74552;BME280;63025;55.472;38.432;2023-08-12T12:22:48;100431.75;;;21.52;100.00
74552;BME280;63025;55.472;38.432;2023-08-12T12:25:16;100424.94;;;21.45;100.00
74552;BME280;63025;55.472;38.432;2023-08-12T12:27:46;100427.38;;;21.41;100.00
74552;BME280;63025;55.472;38.432;2023-08-12T12:30:14;100422.19;;;21.35;100.00
74552;BME280;63025;55.472;38.432;2023-08-12T12:32:40;100410.97;;;21.41;100.00
74552;BME280;63025;55.472;38.432;2023-08-12T12:35:07;100400.03;;;21.46;100.00